createdAt,value
2023-03-21T00:00:00.691Z,100318
2023-03-21T00:01:00.959Z,100318
2023-03-21T00:02:00.660Z,100318
2023-03-21T00:03:01.087Z,100308
2023-03-21T00:04:00.726Z,100308
2023-03-21T00:05:09.486Z,100308
2023-03-21T00:06:04.509Z,100308
2023-03-21T00:07:00.625Z,100308
2023-03-21T00:08:02.384Z,100305
2023-03-21T00:09:00.638Z,100305
2023-03-21T00:10:12.485Z,100305
2023-03-21T00:11:01.676Z,100305
2023-03-21T00:12:00.612Z,100305
2023-03-21T00:13:00.654Z,100306
2023-03-21T00:14:00.622Z,100306
2023-03-21T00:15:00.626Z,100306
2023-03-21T00:16:08.295Z,100306
2023-03-21T00:17:00.620Z,100306
2023-03-21T00:18:00.640Z,100303
2023-03-21T00:19:00.970Z,100303
2023-03-21T00:20:02.439Z,100303
2023-03-21T00:21:35.326Z,100303
2023-03-21T00:23:00.624Z,100301
2023-03-21T00:24:00.714Z,100301
2023-03-21T00:25:00.776Z,100301
2023-03-21T00:26:00.675Z,100301
2023-03-21T00:27:21.946Z,100301
2023-03-21T00:28:07.984Z,100296
2023-03-21T00:29:00.663Z,100296
2023-03-21T00:30:00.647Z,100296
2023-03-21T00:31:00.634Z,100296
2023-03-21T00:32:00.636Z,100296
2023-03-21T00:33:05.876Z,100292
2023-03-21T00:34:00.697Z,100292
2023-03-21T00:35:23.356Z,100292
2023-03-21T00:36:05.218Z,100292
2023-03-21T00:37:00.624Z,100292
2023-03-21T00:38:00.640Z,100281
2023-03-21T00:39:00.635Z,100281
2023-03-21T00:40:00.790Z,100281
2023-03-21T00:41:14.931Z,100281
2023-03-21T00:42:00.985Z,100281
2023-03-21T00:43:00.616Z,100286
2023-03-21T00:44:00.650Z,100286
2023-03-21T00:45:01.019Z,100286
2023-03-21T00:46:01.054Z,100286
2023-03-21T00:47:07.121Z,100286
2023-03-21T00:48:00.861Z,100282
2023-03-21T00:49:00.678Z,100282
2023-03-21T00:50:00.636Z,100282
2023-03-21T00:51:00.684Z,100282
2023-03-21T00:52:14.663Z,100282
2023-03-21T00:53:00.650Z,100277
2023-03-21T00:54:00.617Z,100277
2023-03-21T00:55:00.665Z,100277
2023-03-21T00:56:00.615Z,100277
2023-03-21T00:57:00.831Z,100277
2023-03-21T00:58:02.460Z,100276
2023-03-21T00:59:00.633Z,100276
2023-03-21T01:00:00.707Z,100276
2023-03-21T01:01:00.668Z,100276
2023-03-21T01:02:01.565Z,100276
2023-03-21T01:03:08.489Z,100264
2023-03-21T01:04:00.965Z,100264
2023-03-21T01:05:00.703Z,100264
2023-03-21T01:06:00.630Z,100264
2023-03-21T01:07:00.628Z,100264
2023-03-21T01:08:01.826Z,100259
2023-03-21T01:09:00.623Z,100259
2023-03-21T01:10:00.698Z,100259
2023-03-21T01:11:02.188Z,100259
2023-03-21T01:12:00.621Z,100259
2023-03-21T01:13:00.632Z,100250
2023-03-21T01:14:18.831Z,100250
2023-03-21T01:15:00.635Z,100250
2023-03-21T01:16:00.744Z,100250
2023-03-21T01:17:00.666Z,100250
2023-03-21T01:18:00.682Z,100243
2023-03-21T01:19:02.127Z,100243
2023-03-21T01:20:00.654Z,100243
2023-03-21T01:21:01.314Z,100243
2023-03-21T01:22:00.649Z,100243
2023-03-21T01:23:00.808Z,100235
2023-03-21T01:24:00.783Z,100235
2023-03-21T01:25:12.129Z,100235
2023-03-21T01:26:00.650Z,100235
2023-03-21T01:27:01.289Z,100235
2023-03-21T01:28:00.642Z,100231
2023-03-21T01:29:00.660Z,100231
2023-03-21T01:30:00.622Z,100231
2023-03-21T01:31:01.372Z,100231
2023-03-21T01:32:00.622Z,100231
2023-03-21T01:33:00.674Z,100228
2023-03-21T01:34:00.627Z,100228
2023-03-21T01:35:00.653Z,100228
2023-03-21T01:36:12.138Z,100228
2023-03-21T01:37:00.697Z,100228
2023-03-21T01:38:00.690Z,100223
2023-03-21T01:39:00.622Z,100223
2023-03-21T01:40:01.099Z,100223
2023-03-21T01:41:00.727Z,100223
2023-03-21T01:42:00.645Z,100223
2023-03-21T01:43:01.082Z,100219
2023-03-21T01:44:00.632Z,100219
2023-03-21T01:45:02.714Z,100219
2023-03-21T01:46:01.724Z,100219
2023-03-21T01:47:10.602Z,100219
2023-03-21T01:48:00.662Z,100204
2023-03-21T01:49:05.329Z,100204
2023-03-21T01:50:02.724Z,100204
2023-03-21T01:51:00.667Z,100204
2023-03-21T01:52:12.211Z,100204
2023-03-21T01:53:00.647Z,100202
2023-03-21T01:54:00.827Z,100202
2023-03-21T01:55:02.093Z,100202
2023-03-21T01:56:04.977Z,100202
2023-03-21T01:57:02.861Z,100202
2023-03-21T01:58:06.456Z,100196
2023-03-21T01:59:03.988Z,100196
2023-03-21T02:00:01.910Z,100196
2023-03-21T02:01:01.123Z,100196
2023-03-21T02:02:02.795Z,100196
2023-03-21T02:03:11.594Z,100181
2023-03-21T02:04:00.976Z,100181
2023-03-21T02:05:01.568Z,100181
2023-03-21T02:06:00.625Z,100181
2023-03-21T02:07:05.696Z,100181
2023-03-21T02:08:00.766Z,100172
2023-03-21T02:09:02.868Z,100172
2023-03-21T02:10:02.063Z,100172
2023-03-21T02:11:00.691Z,100172
2023-03-21T02:12:00.687Z,100172
2023-03-21T02:13:02.438Z,100166
2023-03-21T02:14:06.431Z,100166
2023-03-21T02:15:00.726Z,100166
2023-03-21T02:16:05.235Z,100166
2023-03-21T02:17:01.745Z,100166
2023-03-21T02:18:00.612Z,100158
2023-03-21T02:19:03.893Z,100158
2023-03-21T02:20:10.524Z,100158
2023-03-21T02:21:00.600Z,100158
2023-03-21T02:22:08.139Z,100158
2023-03-21T02:23:10.540Z,100152
2023-03-21T02:24:00.609Z,100152
2023-03-21T02:25:21.221Z,100152
2023-03-21T02:26:10.554Z,100152
2023-03-21T02:27:10.750Z,100152
2023-03-21T02:28:01.650Z,100135
2023-03-21T02:29:03.955Z,100135
2023-03-21T02:30:01.642Z,100135
2023-03-21T02:31:03.928Z,100135
2023-03-21T02:32:17.885Z,100135
2023-03-21T02:33:08.094Z,100132
2023-03-21T02:34:10.537Z,100132
2023-03-21T02:35:10.521Z,100132
2023-03-21T02:36:14.474Z,100132
2023-03-21T02:37:04.137Z,100132
2023-03-21T02:38:01.616Z,100119
2023-03-21T02:39:03.879Z,100119
2023-03-21T02:40:10.519Z,100119
2023-03-21T02:41:03.436Z,100119
2023-03-21T02:42:01.632Z,100119
2023-03-21T02:43:09.351Z,100109
2023-03-21T02:44:10.531Z,100109
2023-03-21T02:45:04.604Z,100109
2023-03-21T02:46:04.725Z,100109
2023-03-21T02:47:06.463Z,100109
2023-03-21T02:48:04.046Z,100114
2023-03-21T02:49:10.645Z,100114
2023-03-21T02:50:10.529Z,100114
2023-03-21T02:51:01.786Z,100114
2023-03-21T02:52:12.247Z,100114
2023-03-21T02:53:02.350Z,100103
2023-03-21T02:54:28.217Z,100103
2023-03-21T02:55:01.421Z,100103
2023-03-21T02:56:00.905Z,100103
2023-03-21T02:57:01.309Z,100103
2023-03-21T02:58:12.043Z,100110
2023-03-21T02:59:01.611Z,100110
2023-03-21T03:00:10.687Z,100110
2023-03-21T03:01:00.638Z,100110
2023-03-21T03:02:01.223Z,100110
2023-03-21T03:03:09.300Z,100104
2023-03-21T03:04:00.706Z,100104
2023-03-21T03:05:00.704Z,100104
2023-03-21T03:06:01.481Z,100104
2023-03-21T03:07:10.539Z,100104
2023-03-21T03:08:01.617Z,100094
2023-03-21T03:09:06.284Z,100094
2023-03-21T03:10:07.346Z,100094
2023-03-21T03:11:01.625Z,100094
2023-03-21T03:12:07.187Z,100094
2023-03-21T03:13:07.585Z,100096
2023-03-21T03:14:32.229Z,100096
2023-03-21T03:15:10.676Z,100096
2023-03-21T03:16:01.707Z,100096
2023-03-21T03:17:10.574Z,100096
2023-03-21T03:18:03.934Z,100086
2023-03-21T03:19:01.085Z,100086
2023-03-21T03:20:15.133Z,100086
2023-03-21T03:21:10.692Z,100086
2023-03-21T03:22:04.140Z,100086
2023-03-21T03:23:08.560Z,100071
2023-03-21T03:24:02.077Z,100071
2023-03-21T03:25:17.756Z,100071
2023-03-21T03:26:04.794Z,100071
2023-03-21T03:27:04.961Z,100071
2023-03-21T03:28:03.505Z,100076
2023-03-21T03:29:03.632Z,100076
2023-03-21T03:30:01.347Z,100076
2023-03-21T03:31:09.067Z,100076
2023-03-21T03:32:04.127Z,100076
2023-03-21T03:33:02.324Z,100056
2023-03-21T03:34:04.569Z,100056
2023-03-21T03:35:02.061Z,100056
2023-03-21T03:36:06.383Z,100056
2023-03-21T03:37:03.125Z,100056
2023-03-21T03:38:02.765Z,100056
2023-03-21T03:39:03.193Z,100056
2023-03-21T03:40:00.620Z,100056
2023-03-21T03:41:03.869Z,100056
2023-03-21T03:42:15.372Z,100056
2023-03-21T03:43:03.955Z,100029
2023-03-21T03:44:01.074Z,100029
2023-03-21T03:45:01.873Z,100029
2023-03-21T03:46:06.688Z,100029
2023-03-21T03:47:03.753Z,100029
2023-03-21T03:48:06.521Z,100029
2023-03-21T03:49:04.380Z,100029
2023-03-21T03:50:07.333Z,100029
2023-03-21T03:51:05.416Z,100029
2023-03-21T03:52:10.592Z,100029
2023-03-21T03:53:02.944Z,100020
2023-03-21T03:54:05.213Z,100020
2023-03-21T03:55:00.851Z,100020
2023-03-21T03:56:01.235Z,100020
2023-03-21T03:57:01.460Z,100020
2023-03-21T03:58:02.016Z,100023
2023-03-21T03:59:02.474Z,100023
2023-03-21T04:00:00.631Z,100023
2023-03-21T04:01:00.640Z,100023
2023-03-21T04:02:00.689Z,100023
2023-03-21T04:03:00.856Z,100022
2023-03-21T04:04:12.005Z,100022
2023-03-21T04:05:00.722Z,100022
2023-03-21T04:06:00.633Z,100022
2023-03-21T04:07:00.650Z,100022
2023-03-21T04:08:00.619Z,100011
2023-03-21T04:09:03.438Z,100011
2023-03-21T04:10:00.710Z,100011
2023-03-21T04:11:00.863Z,100011
2023-03-21T04:12:00.652Z,100011
2023-03-21T04:13:00.643Z,100004
2023-03-21T04:14:00.637Z,100004
2023-03-21T04:15:10.758Z,100004
2023-03-21T04:16:00.655Z,100004
2023-03-21T04:17:00.624Z,100004
2023-03-21T04:18:01.192Z,100008
2023-03-21T04:19:00.656Z,100008
2023-03-21T04:20:10.781Z,100008
2023-03-21T04:21:00.664Z,100008
2023-03-21T04:22:00.647Z,100008
2023-03-21T04:23:00.676Z,100005
2023-03-21T04:24:00.659Z,100005
2023-03-21T04:25:00.744Z,100005
2023-03-21T04:26:00.793Z,100005
2023-03-21T04:27:00.656Z,100005
2023-03-21T04:28:01.021Z,100002
2023-03-21T04:29:01.174Z,100002
2023-03-21T04:30:00.909Z,100002
2023-03-21T04:31:06.780Z,100002
2023-03-21T04:32:00.746Z,100002
2023-03-21T04:33:00.709Z,100009
2023-03-21T04:34:02.517Z,100009
2023-03-21T04:35:00.630Z,100009
2023-03-21T04:36:00.810Z,100009
2023-03-21T04:37:00.659Z,100009
2023-03-21T04:38:00.766Z,100013
2023-03-21T04:39:00.650Z,100013
2023-03-21T04:40:01.771Z,100013
2023-03-21T04:41:01.149Z,100013
2023-03-21T04:42:00.672Z,100013
2023-03-21T04:43:00.651Z,100008
2023-03-21T04:44:00.662Z,100008
2023-03-21T04:45:00.851Z,100008
2023-03-21T04:46:00.720Z,100008
2023-03-21T04:47:00.647Z,100008
2023-03-21T04:48:00.758Z,100004
2023-03-21T04:49:01.167Z,100004
2023-03-21T04:50:00.691Z,100004
2023-03-21T04:51:00.700Z,100004
2023-03-21T04:52:00.669Z,100004
2023-03-21T04:53:00.671Z,99996
2023-03-21T04:54:00.702Z,99996
2023-03-21T04:55:00.653Z,99996
2023-03-21T04:56:00.635Z,99996
2023-03-21T04:57:00.684Z,99996
2023-03-21T04:58:00.654Z,99987
2023-03-21T04:59:02.653Z,99987
2023-03-21T05:00:00.812Z,99987
2023-03-21T05:01:00.727Z,99987
2023-03-21T05:02:00.671Z,99987
2023-03-21T05:03:00.630Z,99991
2023-03-21T05:04:01.476Z,99991
2023-03-21T05:05:00.703Z,99991
2023-03-21T05:06:00.639Z,99991
2023-03-21T05:07:00.643Z,99991
2023-03-21T05:08:01.099Z,100001
2023-03-21T05:09:01.009Z,100001
2023-03-21T05:10:02.442Z,100001
2023-03-21T05:11:01.680Z,100001
2023-03-21T05:12:00.723Z,100001
2023-03-21T05:13:00.663Z,99984
2023-03-21T05:14:00.761Z,99984
2023-03-21T05:15:00.689Z,99984
2023-03-21T05:16:00.646Z,99984
2023-03-21T05:17:00.720Z,99984
2023-03-21T05:18:00.662Z,99983
2023-03-21T05:19:01.247Z,99983
2023-03-21T05:20:00.701Z,99983
2023-03-21T05:21:00.664Z,99983
2023-03-21T05:22:02.895Z,99983
2023-03-21T05:23:00.711Z,99964
2023-03-21T05:24:00.630Z,99964
2023-03-21T05:25:00.688Z,99964
2023-03-21T05:26:00.643Z,99964
2023-03-21T05:27:01.653Z,99964
2023-03-21T05:28:00.908Z,99967
2023-03-21T05:29:00.695Z,99967
2023-03-21T05:30:02.263Z,99967
2023-03-21T05:31:00.848Z,99967
2023-03-21T05:32:00.702Z,99967
2023-03-21T05:33:00.671Z,99962
2023-03-21T05:34:00.723Z,99962
2023-03-21T05:35:01.193Z,99962
2023-03-21T05:36:00.658Z,99962
2023-03-21T05:37:00.706Z,99962
2023-03-21T05:38:00.632Z,99961
2023-03-21T05:39:01.082Z,99961
2023-03-21T05:40:00.837Z,99961
2023-03-21T05:41:00.944Z,99961
2023-03-21T05:42:00.689Z,99961
2023-03-21T05:43:00.734Z,99952
2023-03-21T05:44:00.650Z,99952
2023-03-21T05:45:00.637Z,99952
2023-03-21T05:46:00.651Z,99952
2023-03-21T05:47:00.627Z,99952
2023-03-21T05:48:00.692Z,99950
2023-03-21T05:49:00.626Z,99950
2023-03-21T05:50:00.655Z,99950
2023-03-21T05:51:01.088Z,99950
2023-03-21T05:52:00.641Z,99950
2023-03-21T05:53:00.626Z,99946
2023-03-21T05:54:00.625Z,99946
2023-03-21T05:55:00.635Z,99946
2023-03-21T05:56:00.814Z,99946
2023-03-21T05:57:01.259Z,99946
2023-03-21T05:58:00.723Z,99947
2023-03-21T05:59:00.647Z,99947
2023-03-21T06:00:01.081Z,99947
2023-03-21T06:01:00.620Z,99947
2023-03-21T06:02:00.727Z,99947
2023-03-21T06:03:00.682Z,99958
2023-03-21T06:04:00.701Z,99958
2023-03-21T06:05:00.658Z,99958
2023-03-21T06:06:00.639Z,99958
2023-03-21T06:07:00.637Z,99958
2023-03-21T06:08:00.638Z,99958
2023-03-21T06:09:00.777Z,99958
2023-03-21T06:10:00.661Z,99958
2023-03-21T06:11:00.786Z,99958
2023-03-21T06:12:00.647Z,99958
2023-03-21T06:13:00.648Z,99961
2023-03-21T06:14:00.828Z,99961
2023-03-21T06:15:00.771Z,99961
2023-03-21T06:16:00.715Z,99961
2023-03-21T06:17:00.641Z,99961
2023-03-21T06:18:00.627Z,99958
2023-03-21T06:19:00.627Z,99958
2023-03-21T06:20:00.734Z,99958
2023-03-21T06:21:00.636Z,99958
2023-03-21T06:22:00.630Z,99958
2023-03-21T06:23:00.625Z,99956
2023-03-21T06:24:00.794Z,99956
2023-03-21T06:25:01.027Z,99956
2023-03-21T06:26:00.640Z,99956
2023-03-21T06:27:02.889Z,99956
2023-03-21T06:28:00.636Z,99949
2023-03-21T06:29:00.676Z,99949
2023-03-21T06:30:00.789Z,99949
2023-03-21T06:31:00.719Z,99949
2023-03-21T06:32:00.634Z,99949
2023-03-21T06:33:00.628Z,99963
2023-03-21T06:34:00.617Z,99963
2023-03-21T06:35:00.676Z,99963
2023-03-21T06:36:00.681Z,99963
2023-03-21T06:37:00.674Z,99963
2023-03-21T06:38:00.663Z,99959
2023-03-21T06:39:00.693Z,99959
2023-03-21T06:40:00.667Z,99959
2023-03-21T06:41:00.628Z,99959
2023-03-21T06:42:01.074Z,99959
2023-03-21T06:43:00.618Z,99961
2023-03-21T06:44:00.901Z,99961
2023-03-21T06:45:00.693Z,99961
2023-03-21T06:46:00.802Z,99961
2023-03-21T06:47:00.670Z,99961
2023-03-21T06:48:00.678Z,99968
2023-03-21T06:49:00.629Z,99968
2023-03-21T06:50:00.654Z,99968
2023-03-21T06:51:00.614Z,99968
2023-03-21T06:52:00.642Z,99968
2023-03-21T06:53:00.640Z,99959
2023-03-21T06:54:00.684Z,99959
2023-03-21T06:55:00.626Z,99959
2023-03-21T06:56:00.705Z,99959
2023-03-21T06:57:00.849Z,99959
2023-03-21T06:58:00.666Z,99958
2023-03-21T06:59:00.667Z,99958
2023-03-21T07:00:00.739Z,99958
2023-03-21T07:01:00.769Z,99958
2023-03-21T07:02:00.636Z,99958
2023-03-21T07:03:00.647Z,99948
2023-03-21T07:04:00.819Z,99948
2023-03-21T07:05:00.649Z,99948
2023-03-21T07:06:08.683Z,99948
2023-03-21T07:07:00.624Z,99948
2023-03-21T07:08:00.774Z,99941
2023-03-21T07:09:00.636Z,99941
2023-03-21T07:10:00.640Z,99941
2023-03-21T07:11:00.614Z,99941
2023-03-21T07:12:00.636Z,99941
2023-03-21T07:13:00.759Z,99932
2023-03-21T07:14:00.771Z,99932
2023-03-21T07:15:01.152Z,99932
2023-03-21T07:16:00.821Z,99932
2023-03-21T07:17:00.658Z,99932
2023-03-21T07:18:00.998Z,99931
2023-03-21T07:19:00.643Z,99931
2023-03-21T07:20:00.694Z,99931
2023-03-21T07:21:00.623Z,99931
2023-03-21T07:22:00.665Z,99931
2023-03-21T07:23:03.020Z,99918
2023-03-21T07:24:00.647Z,99918
2023-03-21T07:25:05.126Z,99918
2023-03-21T07:26:00.751Z,99918
2023-03-21T07:27:00.649Z,99918
2023-03-21T07:28:00.623Z,99919
2023-03-21T07:29:00.633Z,99919
2023-03-21T07:30:00.672Z,99919
2023-03-21T07:31:02.046Z,99919
2023-03-21T07:32:00.706Z,99919
2023-03-21T07:33:00.639Z,99925
2023-03-21T07:34:00.619Z,99925
2023-03-21T07:35:01.806Z,99925
2023-03-21T07:36:01.090Z,99925
2023-03-21T07:37:00.636Z,99925
2023-03-21T07:38:00.860Z,99928
2023-03-21T07:39:00.649Z,99928
2023-03-21T07:40:00.771Z,99928
2023-03-21T07:41:00.676Z,99928
2023-03-21T07:42:00.781Z,99928
2023-03-21T07:43:03.422Z,99931
2023-03-21T07:44:00.676Z,99931
2023-03-21T07:45:00.625Z,99931
2023-03-21T07:46:00.979Z,99931
2023-03-21T07:47:00.637Z,99931
2023-03-21T07:48:00.770Z,99942
2023-03-21T07:49:00.622Z,99942
2023-03-21T07:50:00.827Z,99942
2023-03-21T07:51:00.652Z,99942
2023-03-21T07:52:01.148Z,99942
2023-03-21T07:53:00.785Z,99938
2023-03-21T07:54:00.920Z,99938
2023-03-21T07:55:00.621Z,99938
2023-03-21T07:56:00.674Z,99938
2023-03-21T07:57:00.660Z,99938
2023-03-21T07:58:01.606Z,99941
2023-03-21T07:59:00.630Z,99941
2023-03-21T08:00:00.642Z,99941
2023-03-21T08:01:00.652Z,99941
2023-03-21T08:02:00.662Z,99941
2023-03-21T08:03:00.846Z,99936
2023-03-21T08:04:00.681Z,99936
2023-03-21T08:05:01.233Z,99936
2023-03-21T08:06:00.621Z,99936
2023-03-21T08:07:00.630Z,99936
2023-03-21T08:08:00.633Z,99933
2023-03-21T08:09:00.904Z,99933
2023-03-21T08:10:00.621Z,99933
2023-03-21T08:11:00.646Z,99933
2023-03-21T08:12:00.635Z,99933
2023-03-21T08:13:00.682Z,99937
2023-03-21T08:14:00.805Z,99937
2023-03-21T08:15:01.203Z,99937
2023-03-21T08:16:00.630Z,99937
2023-03-21T08:17:00.722Z,99937
2023-03-21T08:18:00.696Z,99935
2023-03-21T08:19:00.632Z,99935
2023-03-21T08:20:00.627Z,99935
2023-03-21T08:21:00.640Z,99935
2023-03-21T08:22:00.624Z,99935
2023-03-21T08:23:00.879Z,99931
2023-03-21T08:24:00.633Z,99931
2023-03-21T08:25:01.421Z,99931
2023-03-21T08:26:00.633Z,99931
2023-03-21T08:27:01.033Z,99931
2023-03-21T08:28:00.625Z,99923
2023-03-21T08:29:00.632Z,99923
2023-03-21T08:30:00.637Z,99923
2023-03-21T08:31:05.508Z,99923
2023-03-21T08:32:00.634Z,99923
2023-03-21T08:33:01.705Z,99918
2023-03-21T08:34:00.633Z,99918
2023-03-21T08:35:00.991Z,99918
2023-03-21T08:36:01.087Z,99918
2023-03-21T08:37:00.655Z,99918
2023-03-21T08:38:02.480Z,99928
2023-03-21T08:39:00.622Z,99928
2023-03-21T08:40:00.685Z,99928
2023-03-21T08:41:00.956Z,99928
2023-03-21T08:42:00.652Z,99928
2023-03-21T08:43:00.775Z,99919
2023-03-21T08:44:00.909Z,99919
2023-03-21T08:45:00.655Z,99919
2023-03-21T08:46:00.741Z,99919
2023-03-21T08:47:00.696Z,99919
2023-03-21T08:48:00.699Z,99918
2023-03-21T08:49:00.678Z,99918
2023-03-21T08:50:00.858Z,99918
2023-03-21T08:51:00.634Z,99918
2023-03-21T08:52:01.076Z,99918
2023-03-21T08:53:00.725Z,99912
2023-03-21T08:54:00.646Z,99912
2023-03-21T08:55:00.632Z,99912
2023-03-21T08:56:00.629Z,99912
2023-03-21T08:57:00.655Z,99912
2023-03-21T08:58:00.747Z,99907
2023-03-21T08:59:00.633Z,99907
2023-03-21T09:00:00.709Z,99907
2023-03-21T09:01:00.702Z,99907
2023-03-21T09:02:00.695Z,99907
2023-03-21T09:03:00.632Z,99898
2023-03-21T09:04:00.670Z,99898
2023-03-21T09:05:00.707Z,99898
2023-03-21T09:06:00.644Z,99898
2023-03-21T09:07:00.659Z,99898
2023-03-21T09:08:00.840Z,99891
2023-03-21T09:09:00.696Z,99891
2023-03-21T09:10:19.670Z,99891
2023-03-21T09:11:00.627Z,99891
2023-03-21T09:12:00.618Z,99891
2023-03-21T09:13:00.647Z,99892
2023-03-21T09:14:00.708Z,99892
2023-03-21T09:15:00.774Z,99892
2023-03-21T09:16:00.659Z,99892
2023-03-21T09:17:01.032Z,99892
2023-03-21T09:18:00.620Z,99887
2023-03-21T09:19:00.864Z,99887
2023-03-21T09:20:00.812Z,99887
2023-03-21T09:21:00.617Z,99887
2023-03-21T09:22:01.156Z,99887
2023-03-21T09:23:00.622Z,99876
2023-03-21T09:24:01.065Z,99876
2023-03-21T09:25:00.662Z,99876
2023-03-21T09:26:00.656Z,99876
2023-03-21T09:27:00.637Z,99876
2023-03-21T09:28:00.715Z,99895
2023-03-21T09:29:00.641Z,99895
2023-03-21T09:30:00.670Z,99895
2023-03-21T09:31:00.742Z,99895
2023-03-21T09:32:00.641Z,99895
2023-03-21T09:33:02.337Z,99890
2023-03-21T09:34:00.699Z,99890
2023-03-21T09:35:00.644Z,99890
2023-03-21T09:36:01.056Z,99890
2023-03-21T09:37:00.806Z,99890
2023-03-21T09:38:00.638Z,99895
2023-03-21T09:39:01.145Z,99895
2023-03-21T09:40:00.624Z,99895
2023-03-21T09:41:00.620Z,99895
2023-03-21T09:42:09.001Z,99895
2023-03-21T09:43:00.614Z,99895
2023-03-21T09:44:06.204Z,99895
2023-03-21T09:45:03.900Z,99895
2023-03-21T09:46:00.612Z,99895
2023-03-21T09:47:01.728Z,99895
2023-03-21T09:48:00.767Z,99884
2023-03-21T09:49:02.645Z,99884
2023-03-21T09:50:14.089Z,99884
2023-03-21T09:51:01.630Z,99884
2023-03-21T09:52:03.673Z,99884
2023-03-21T09:53:10.540Z,99887
2023-03-21T09:54:04.234Z,99887
2023-03-21T09:55:01.536Z,99887
2023-03-21T09:56:01.133Z,99887
2023-03-21T09:57:04.231Z,99887
2023-03-21T09:58:01.666Z,99889
2023-03-21T09:59:01.143Z,99889
2023-03-21T10:00:05.060Z,99889
2023-03-21T10:01:05.659Z,99889
2023-03-21T10:02:01.212Z,99889
2023-03-21T10:03:02.620Z,99885
2023-03-21T10:04:03.298Z,99885
2023-03-21T10:05:01.117Z,99885
2023-03-21T10:06:02.927Z,99885
2023-03-21T10:07:01.112Z,99885
2023-03-21T10:08:00.610Z,99877
2023-03-21T10:09:04.347Z,99877
2023-03-21T10:10:01.405Z,99877
2023-03-21T10:11:03.640Z,99877
2023-03-21T10:12:03.026Z,99877
2023-03-21T10:13:00.641Z,99878
2023-03-21T10:14:03.349Z,99878
2023-03-21T10:15:00.947Z,99878
2023-03-21T10:16:03.549Z,99878
2023-03-21T10:17:10.530Z,99878
2023-03-21T10:18:01.918Z,99860
2023-03-21T10:19:06.457Z,99860
2023-03-21T10:20:00.604Z,99860
2023-03-21T10:21:01.467Z,99860
2023-03-21T10:22:03.049Z,99860
2023-03-21T10:23:03.327Z,99867
2023-03-21T10:24:00.642Z,99867
2023-03-21T10:25:00.777Z,99867
2023-03-21T10:26:04.151Z,99867
2023-03-21T10:27:01.414Z,99867
2023-03-21T10:28:01.011Z,99847
2023-03-21T10:29:01.298Z,99847
2023-03-21T10:30:00.996Z,99847
2023-03-21T10:31:03.739Z,99847
2023-03-21T10:32:01.760Z,99847
2023-03-21T10:33:01.937Z,99846
2023-03-21T10:34:04.023Z,99846
2023-03-21T10:35:01.269Z,99846
2023-03-21T10:36:04.524Z,99846
2023-03-21T10:37:01.929Z,99846
2023-03-21T10:38:00.639Z,99851
2023-03-21T10:39:03.705Z,99851
2023-03-21T10:40:00.861Z,99851
2023-03-21T10:41:00.703Z,99851
2023-03-21T10:42:00.667Z,99851
2023-03-21T10:43:10.541Z,99849
2023-03-21T10:44:09.606Z,99849
2023-03-21T10:45:00.638Z,99849
2023-03-21T10:46:05.428Z,99849
2023-03-21T10:47:05.633Z,99849
2023-03-21T10:48:01.654Z,99852
2023-03-21T10:49:00.766Z,99852
2023-03-21T10:50:09.218Z,99852
2023-03-21T10:51:00.808Z,99852
2023-03-21T10:52:03.234Z,99852
2023-03-21T10:53:01.043Z,99846
2023-03-21T10:54:04.848Z,99846
2023-03-21T10:55:08.317Z,99846
2023-03-21T10:56:01.775Z,99846
2023-03-21T10:57:03.917Z,99846
2023-03-21T10:58:04.879Z,99843
2023-03-21T10:59:01.128Z,99843
2023-03-21T11:00:01.311Z,99843
2023-03-21T11:01:02.647Z,99843
2023-03-21T11:02:02.760Z,99843
2023-03-21T11:03:01.116Z,99833
2023-03-21T11:04:05.259Z,99833
2023-03-21T11:05:05.074Z,99833
2023-03-21T11:06:05.051Z,99833
2023-03-21T11:07:03.916Z,99833
2023-03-21T11:08:03.336Z,99824
2023-03-21T11:09:05.455Z,99824
2023-03-21T11:10:14.480Z,99824
2023-03-21T11:11:02.610Z,99824
2023-03-21T11:12:01.576Z,99824
2023-03-21T11:13:02.792Z,99822
2023-03-21T11:14:02.238Z,99822
2023-03-21T11:15:10.523Z,99822
2023-03-21T11:16:05.324Z,99822
2023-03-21T11:17:00.816Z,99822
2023-03-21T11:18:10.540Z,99827
2023-03-21T11:19:03.141Z,99827
2023-03-21T11:20:02.562Z,99827
2023-03-21T11:21:03.492Z,99827
2023-03-21T11:22:07.847Z,99827
2023-03-21T11:23:01.966Z,99839
2023-03-21T11:24:01.722Z,99839
2023-03-21T11:25:01.359Z,99839
2023-03-21T11:26:01.462Z,99839
2023-03-21T11:27:04.855Z,99839
2023-03-21T11:28:05.113Z,99827
2023-03-21T11:29:08.287Z,99827
2023-03-21T11:30:01.622Z,99827
2023-03-21T11:31:01.847Z,99827
2023-03-21T11:32:07.974Z,99827
2023-03-21T11:33:01.817Z,99821
2023-03-21T11:34:04.756Z,99821
2023-03-21T11:35:03.994Z,99821
2023-03-21T11:36:03.331Z,99821
2023-03-21T11:37:01.608Z,99821
2023-03-21T11:38:00.949Z,99812
2023-03-21T11:39:10.555Z,99812
2023-03-21T11:40:05.912Z,99812
2023-03-21T11:41:01.080Z,99812
2023-03-21T11:42:00.684Z,99812
2023-03-21T11:43:03.226Z,99822
2023-03-21T11:44:01.541Z,99822
2023-03-21T11:45:03.474Z,99822
2023-03-21T11:46:01.734Z,99822
2023-03-21T11:47:01.180Z,99822
2023-03-21T11:48:04.686Z,99827
2023-03-21T11:49:00.662Z,99827
2023-03-21T11:50:04.861Z,99827
2023-03-21T11:51:04.857Z,99827
2023-03-21T11:52:10.560Z,99827
2023-03-21T11:53:03.899Z,99826
2023-03-21T11:54:09.553Z,99826
2023-03-21T11:55:08.013Z,99826
2023-03-21T11:56:00.614Z,99826
2023-03-21T11:57:10.549Z,99826
2023-03-21T11:58:14.718Z,99814
2023-03-21T11:59:10.610Z,99814
2023-03-21T12:00:08.839Z,99814
2023-03-21T12:01:00.616Z,99814
2023-03-21T12:02:10.583Z,99814
2023-03-21T12:03:04.014Z,99818
2023-03-21T12:04:10.678Z,99818
2023-03-21T12:05:06.113Z,99818
2023-03-21T12:06:02.012Z,99818
2023-03-21T12:07:03.906Z,99818
2023-03-21T12:08:01.644Z,99817
2023-03-21T12:09:05.742Z,99817
2023-03-21T12:10:10.527Z,99817
2023-03-21T12:11:01.641Z,99817
2023-03-21T12:12:01.631Z,99817
2023-03-21T12:13:00.649Z,99810
2023-03-21T12:14:10.556Z,99810
2023-03-21T12:15:10.528Z,99810
2023-03-21T12:16:10.613Z,99810
2023-03-21T12:17:01.633Z,99810
2023-03-21T12:18:10.551Z,99815
2023-03-21T12:19:07.974Z,99815
2023-03-21T12:20:10.548Z,99815
2023-03-21T12:21:05.930Z,99815
2023-03-21T12:22:01.635Z,99815
2023-03-21T12:23:10.587Z,99817
2023-03-21T12:24:06.015Z,99817
2023-03-21T12:25:09.065Z,99817
2023-03-21T12:26:10.540Z,99817
2023-03-21T12:27:10.544Z,99817
2023-03-21T12:28:08.230Z,99815
2023-03-21T12:29:08.003Z,99815
2023-03-21T12:30:10.519Z,99815
2023-03-21T12:31:08.479Z,99815
2023-03-21T12:32:00.623Z,99815
2023-03-21T12:33:10.536Z,99809
2023-03-21T12:34:10.534Z,99809
2023-03-21T12:35:10.554Z,99809
2023-03-21T12:36:01.689Z,99809
2023-03-21T12:37:01.635Z,99809
2023-03-21T12:38:01.617Z,99797
2023-03-21T12:39:00.649Z,99797
2023-03-21T12:40:07.773Z,99797
2023-03-21T12:41:01.636Z,99797
2023-03-21T12:42:01.677Z,99797
2023-03-21T12:43:10.551Z,99789
2023-03-21T12:44:07.957Z,99789